createdAt,value
2017-08-14T00:01:17.023Z,96.90
2017-08-14T00:03:43.290Z,96.90
2017-08-14T00:06:09.610Z,97.60
2017-08-14T00:08:35.890Z,97.40
2017-08-14T00:11:03.170Z,97.60
2017-08-14T00:13:29.878Z,97.50
2017-08-14T00:15:56.150Z,98.20
2017-08-14T00:18:23.170Z,98.50
2017-08-14T00:20:49.518Z,98.50
2017-08-14T00:23:15.797Z,98.30
2017-08-14T00:25:43.863Z,98.70
2017-08-14T00:28:10.152Z,98.30
2017-08-14T00:30:36.450Z,98.60
2017-08-14T00:33:02.730Z,98.50
2017-08-14T00:35:29.026Z,98.60
2017-08-14T00:37:55.310Z,98.30
2017-08-14T00:40:21.583Z,98.50
2017-08-14T00:42:47.870Z,98.60
2017-08-14T00:45:15.159Z,99.40
2017-08-14T00:47:41.430Z,99.00
2017-08-14T00:50:07.742Z,99.30
2017-08-14T00:52:34.049Z,99.30
2017-08-14T00:55:01.062Z,99.70
2017-08-14T00:57:27.366Z,99.70
2017-08-14T00:59:53.673Z,99.90
2017-08-14T01:02:19.954Z,99.90
2017-08-14T01:04:46.241Z,99.90
2017-08-14T01:07:12.560Z,99.90
2017-08-14T01:09:38.826Z,99.90
2017-08-14T01:12:05.126Z,99.90
2017-08-14T01:14:31.411Z,99.90
2017-08-14T01:16:57.662Z,99.90
2017-08-14T01:19:24.034Z,99.90
2017-08-14T01:21:50.290Z,99.90
2017-08-14T01:24:16.590Z,99.90
2017-08-14T01:26:42.907Z,99.90
2017-08-14T01:29:09.172Z,99.90
2017-08-14T01:31:36.207Z,99.90
2017-08-14T01:34:02.499Z,99.90
2017-08-14T01:36:28.755Z,99.90
2017-08-14T01:38:55.049Z,99.90
2017-08-14T01:41:21.334Z,99.90
2017-08-14T01:43:47.614Z,99.90
2017-08-14T01:46:13.890Z,99.90
2017-08-14T01:48:40.170Z,99.90
2017-08-14T01:51:07.175Z,99.90
2017-08-14T01:53:33.519Z,99.90
2017-08-14T01:55:59.794Z,99.90
2017-08-14T01:58:27.062Z,99.90
2017-08-14T02:00:53.353Z,99.90
2017-08-14T02:03:19.630Z,99.90
2017-08-14T02:05:45.906Z,99.90
2017-08-14T02:08:12.198Z,99.90
2017-08-14T02:10:38.482Z,99.90
2017-08-14T02:13:04.754Z,99.90
2017-08-14T02:15:31.054Z,99.90
2017-08-14T02:17:58.085Z,99.90
2017-08-14T02:20:24.331Z,99.90
2017-08-14T02:22:50.614Z,99.90
2017-08-14T02:25:16.898Z,99.90
2017-08-14T02:27:43.199Z,99.90
2017-08-14T02:30:09.486Z,99.90
2017-08-14T02:32:35.770Z,99.90
2017-08-14T02:35:02.042Z,99.90
2017-08-14T02:37:28.350Z,99.90
2017-08-14T02:39:54.653Z,99.90
2017-08-14T02:42:30.982Z,99.90
2017-08-14T02:44:57.270Z,99.90
2017-08-14T02:47:23.542Z,99.90
2017-08-14T02:49:49.822Z,99.90
2017-08-14T02:52:16.119Z,99.90
2017-08-14T02:54:42.387Z,99.90
2017-08-14T02:57:08.665Z,99.90
2017-08-14T02:59:34.965Z,99.90
2017-08-14T03:02:01.218Z,99.90
2017-08-14T03:04:27.499Z,99.90
2017-08-14T03:06:53.793Z,99.90
2017-08-14T03:09:20.083Z,99.90
2017-08-14T03:11:46.366Z,99.90
2017-08-14T03:14:12.727Z,99.90
2017-08-14T03:16:39.030Z,99.90
2017-08-14T03:19:05.308Z,99.90
2017-08-14T03:21:31.630Z,99.90
2017-08-14T03:23:58.070Z,99.90
2017-08-14T03:26:24.350Z,99.90
2017-08-14T03:28:50.678Z,99.90
2017-08-14T03:31:16.948Z,99.90
2017-08-14T03:33:43.226Z,99.90
2017-08-14T03:36:09.546Z,99.90
2017-08-14T03:38:35.827Z,99.90
2017-08-14T03:41:02.122Z,99.90
2017-08-14T03:43:28.422Z,99.90
2017-08-14T03:45:54.690Z,99.90
2017-08-14T03:48:20.958Z,99.90
2017-08-14T03:50:47.295Z,99.90
2017-08-14T03:53:13.542Z,99.90
2017-08-14T03:55:39.822Z,99.90
2017-08-14T03:58:06.114Z,99.90
2017-08-14T04:00:33.102Z,99.90
2017-08-14T04:02:59.362Z,99.90
2017-08-14T04:05:25.682Z,99.90
2017-08-14T04:07:51.940Z,99.90
2017-08-14T04:10:18.220Z,99.90
2017-08-14T04:12:44.536Z,99.90
2017-08-14T04:15:10.818Z,99.90
2017-08-14T04:17:37.078Z,99.90
2017-08-14T04:20:03.386Z,99.90
2017-08-14T04:22:29.638Z,99.90
2017-08-14T04:24:55.914Z,99.90
2017-08-14T04:27:22.217Z,99.90
2017-08-14T04:29:48.506Z,99.90
2017-08-14T04:32:14.759Z,99.90
2017-08-14T04:34:41.066Z,99.90
2017-08-14T04:37:07.339Z,99.90
2017-08-14T04:39:33.595Z,99.90
2017-08-14T04:41:59.897Z,99.90
2017-08-14T04:44:26.882Z,99.90
2017-08-14T04:46:53.143Z,99.90
2017-08-14T04:49:19.456Z,99.90
2017-08-14T04:51:45.726Z,99.90
2017-08-14T04:54:12.002Z,99.90
2017-08-14T04:56:38.297Z,99.90
2017-08-14T04:59:04.550Z,99.90
2017-08-14T05:01:30.825Z,99.90
2017-08-14T05:03:57.104Z,99.90
2017-08-14T05:06:23.371Z,99.90
2017-08-14T05:08:49.733Z,99.90
2017-08-14T05:11:16.022Z,99.90
2017-08-14T05:13:42.273Z,99.90
2017-08-14T05:16:09.313Z,99.90
2017-08-14T05:18:35.605Z,99.90
2017-08-14T05:21:02.636Z,99.90
2017-08-14T05:23:28.973Z,99.90
2017-08-14T05:25:55.251Z,99.90
2017-08-14T05:28:21.514Z,99.90
2017-08-14T05:30:47.838Z,99.90
2017-08-14T05:33:14.127Z,99.90
2017-08-14T05:35:40.414Z,99.90
2017-08-14T05:38:06.689Z,99.90
2017-08-14T05:40:34.002Z,99.90
2017-08-14T05:43:01.074Z,99.90
2017-08-14T05:45:27.370Z,99.90
2017-08-14T05:47:53.670Z,99.90
2017-08-14T05:50:19.943Z,99.90
2017-08-14T05:52:46.202Z,99.90
2017-08-14T05:55:12.498Z,99.90
2017-08-14T05:57:39.518Z,99.90
2017-08-14T06:00:05.826Z,99.90
2017-08-14T06:02:32.151Z,99.90
2017-08-14T06:04:58.423Z,99.90
2017-08-14T06:07:24.714Z,99.90
2017-08-14T06:09:51.005Z,99.90
2017-08-14T06:12:17.299Z,99.90
2017-08-14T06:14:43.590Z,99.90
2017-08-14T06:17:09.899Z,99.90
2017-08-14T06:19:36.163Z,99.90
2017-08-14T06:22:02.483Z,99.90
2017-08-14T06:24:28.766Z,99.90
2017-08-14T06:26:55.086Z,99.90
2017-08-14T06:29:21.367Z,99.90
2017-08-14T06:31:47.673Z,99.90
2017-08-14T06:34:13.948Z,99.90
2017-08-14T06:36:40.238Z,99.90
2017-08-14T06:39:07.254Z,99.90
2017-08-14T06:41:33.526Z,99.90
2017-08-14T06:43:59.798Z,99.90
2017-08-14T06:46:26.861Z,99.90
2017-08-14T06:48:53.122Z,99.90
2017-08-14T06:51:19.414Z,99.90
2017-08-14T06:53:45.797Z,99.90
2017-08-14T06:56:12.111Z,99.50
2017-08-14T06:58:38.439Z,99.90
2017-08-14T07:01:04.779Z,99.90
2017-08-14T07:03:31.153Z,99.00
2017-08-14T07:05:57.543Z,99.90
2017-08-14T07:08:23.906Z,99.90
2017-08-14T07:10:50.257Z,99.90
2017-08-14T07:13:16.670Z,98.20
2017-08-14T07:15:43.755Z,99.20
2017-08-14T07:18:11.195Z,99.20
2017-08-14T07:20:37.551Z,97.90
2017-08-14T07:23:03.951Z,97.50
2017-08-14T07:25:30.367Z,95.90
2017-08-14T07:27:56.758Z,94.90
2017-08-14T07:30:23.177Z,95.40
2017-08-14T07:32:49.589Z,96.10
2017-08-14T07:35:16.010Z,96.70
2017-08-14T07:37:42.423Z,97.10
2017-08-14T07:40:08.805Z,94.30
2017-08-14T07:42:35.200Z,95.10
2017-08-14T07:45:01.624Z,94.60
2017-08-14T07:47:27.955Z,93.10
2017-08-14T07:49:55.096Z,94.10
2017-08-14T07:52:21.467Z,94.20
2017-08-14T07:54:47.823Z,93.80
2017-08-14T07:57:14.971Z,90.10
2017-08-14T07:59:41.363Z,90.10
2017-08-14T08:02:08.489Z,93.20
2017-08-14T08:04:34.860Z,93.30
2017-08-14T08:07:01.258Z,87.80
2017-08-14T08:09:28.328Z,92.40
2017-08-14T08:11:54.690Z,92.40
2017-08-14T08:14:21.055Z,92.60
2017-08-14T08:16:47.452Z,91.70
2017-08-14T08:19:13.911Z,92.70
2017-08-14T08:21:40.303Z,89.00
2017-08-14T08:24:06.707Z,92.10
2017-08-14T08:26:33.062Z,92.30
2017-08-14T08:28:59.437Z,90.80
2017-08-14T08:31:25.798Z,91.60
2017-08-14T08:33:52.180Z,88.40
2017-08-14T08:36:18.595Z,91.40
2017-08-14T08:38:45.032Z,93.20
2017-08-14T08:41:11.399Z,92.90
2017-08-14T08:43:37.798Z,92.70
2017-08-14T08:46:04.919Z,91.30
2017-08-14T08:48:32.051Z,92.10
2017-08-14T08:50:58.456Z,92.10
2017-08-14T08:53:24.884Z,89.00
2017-08-14T08:55:51.279Z,91.60
2017-08-14T08:58:17.692Z,90.60
2017-08-14T09:00:44.068Z,90.30
2017-08-14T09:03:10.432Z,91.60
2017-08-14T09:05:37.579Z,90.20
2017-08-14T09:08:03.951Z,90.20
2017-08-14T18:10:05.826Z,92.60
2017-08-14T18:12:33.570Z,93.30
2017-08-14T18:15:00.551Z,93.30
2017-08-14T18:17:28.692Z,93.50
2017-08-14T18:19:56.442Z,93.50
2017-08-14T18:22:24.664Z,92.70
2017-08-14T18:24:52.488Z,92.70
2017-08-14T18:27:20.216Z,92.40
2017-08-14T18:29:47.918Z,92.70
2017-08-14T18:32:16.399Z,93.40
2017-08-14T18:34:43.894Z,93.30
2017-08-14T18:37:12.362Z,94.00
2017-08-14T18:39:40.201Z,94.00
2017-08-14T18:42:08.141Z,93.60
2017-08-14T18:44:36.953Z,93.70
2017-08-14T18:47:04.824Z,94.40
2017-08-14T18:49:33.513Z,95.20
2017-08-14T18:52:01.328Z,95.20
2017-08-14T18:54:29.271Z,95.30
2017-08-14T18:56:57.207Z,95.70
2017-08-14T18:59:24.999Z,95.90
2017-08-14T19:01:52.934Z,96.10
2017-08-14T19:04:20.788Z,96.30
2017-08-14T19:06:48.574Z,96.50
2017-08-14T19:09:18.469Z,96.70
2017-08-14T19:11:44.914Z,97.10
2017-08-14T19:14:12.664Z,97.40
2017-08-14T19:16:40.539Z,97.50
2017-08-14T19:19:08.454Z,97.90
2017-08-14T19:21:36.270Z,97.80
2017-08-14T19:24:04.179Z,98.00
2017-08-14T19:26:32.126Z,98.00
2017-08-14T19:29:00.892Z,98.30
2017-08-14T19:31:28.744Z,98.20
2017-08-14T19:33:56.622Z,98.30
2017-08-14T19:36:25.033Z,98.70
2017-08-14T19:38:53.796Z,98.60
2017-08-14T19:41:21.727Z,98.70
2017-08-14T19:43:50.309Z,99.10
2017-08-14T19:46:18.276Z,99.10
2017-08-14T19:48:46.773Z,98.50
2017-08-14T19:51:14.743Z,98.80
2017-08-14T19:53:43.759Z,98.70
2017-08-14T19:56:11.709Z,98.50
2017-08-14T19:58:39.549Z,98.90
2017-08-14T20:01:07.623Z,98.90
2017-08-14T20:03:35.549Z,99.10
2017-08-14T20:06:03.434Z,99.20
2017-08-14T20:08:31.481Z,99.50
2017-08-14T20:10:59.443Z,99.70
2017-08-14T20:13:27.306Z,99.70
2017-08-14T20:15:56.336Z,99.80
2017-08-14T20:18:25.419Z,99.90
2017-08-14T20:20:53.296Z,99.90
2017-08-14T20:23:22.363Z,99.90
2017-08-14T20:25:50.357Z,99.80
2017-08-14T20:28:18.335Z,99.90
2017-08-14T20:30:46.336Z,99.90
2017-08-14T20:33:14.316Z,99.90
2017-08-14T20:35:42.116Z,99.90
2017-08-14T20:38:10.080Z,99.90
2017-08-14T20:40:39.078Z,99.90
2017-08-14T20:43:07.002Z,99.90
2017-08-14T20:45:34.977Z,99.90
2017-08-14T20:48:02.908Z,99.90
2017-08-14T20:50:30.786Z,99.90
2017-08-14T20:52:58.806Z,99.90
2017-08-14T20:55:26.787Z,99.90
2017-08-14T20:57:54.586Z,99.90
2017-08-14T21:00:22.516Z,99.90
2017-08-14T21:02:50.377Z,99.90
2017-08-14T21:05:18.143Z,99.90
2017-08-14T21:07:46.134Z,99.90
2017-08-14T21:10:14.781Z,99.90
2017-08-14T21:12:41.469Z,99.90
2017-08-14T21:15:08.078Z,99.90
2017-08-14T21:17:34.451Z,99.90
2017-08-14T21:20:00.814Z,99.90
2017-08-14T21:22:27.184Z,99.90
2017-08-14T21:24:54.334Z,99.90
2017-08-14T21:27:21.407Z,99.90
2017-08-14T21:29:47.771Z,99.90
2017-08-14T21:32:14.156Z,99.90
2017-08-14T21:34:41.366Z,99.90
2017-08-14T21:37:07.732Z,99.90
2017-08-14T21:39:34.124Z,99.90
2017-08-14T21:42:00.523Z,99.90
2017-08-14T21:44:26.947Z,99.90
2017-08-14T21:46:53.319Z,99.90
2017-08-14T21:49:19.700Z,99.90
2017-08-14T21:51:46.054Z,99.90
2017-08-14T21:54:12.496Z,99.90
2017-08-14T21:56:39.695Z,99.90
2017-08-14T21:59:06.063Z,99.90
2017-08-14T22:01:32.464Z,99.90
2017-08-14T22:03:58.811Z,99.90
2017-08-14T22:06:25.175Z,99.90
2017-08-14T22:08:51.592Z,99.90
2017-08-14T22:11:17.936Z,99.90
2017-08-14T22:13:44.299Z,99.90
2017-08-14T22:16:10.749Z,99.90
2017-08-14T22:18:37.281Z,99.90
2017-08-14T22:21:05.819Z,99.90
2017-08-14T22:23:32.421Z,99.90
2017-08-14T22:26:00.968Z,99.90
2017-08-14T22:28:27.380Z,99.90
2017-08-14T22:30:54.535Z,99.90
2017-08-14T22:33:20.951Z,99.90
2017-08-14T22:35:47.354Z,99.90
2017-08-14T22:38:13.722Z,99.90
2017-08-14T22:40:40.071Z,99.90
2017-08-14T22:43:06.799Z,99.90
2017-08-14T22:45:34.324Z,99.90
2017-08-14T22:48:00.646Z,99.90
2017-08-14T22:50:26.918Z,99.90
2017-08-14T22:52:53.191Z,99.90
2017-08-14T22:55:19.458Z,99.90
2017-08-14T22:57:45.734Z,99.90
2017-08-14T23:00:12.026Z,99.90
2017-08-14T23:02:38.282Z,99.90
2017-08-14T23:05:04.558Z,99.90
2017-08-14T23:07:31.578Z,99.90
2017-08-14T23:09:57.839Z,99.90
2017-08-14T23:12:24.138Z,99.90
2017-08-14T23:14:50.395Z,99.90
2017-08-14T23:17:16.654Z,99.90
2017-08-14T23:19:43.670Z,99.90
2017-08-14T23:22:10.670Z,99.90
2017-08-14T23:24:36.918Z,99.90
2017-08-14T23:27:03.198Z,99.90
2017-08-14T23:29:29.474Z,99.90
2017-08-14T23:31:55.754Z,99.90
2017-08-14T23:34:22.019Z,99.90
2017-08-14T23:36:48.307Z,99.90
2017-08-14T23:39:15.337Z,99.90
2017-08-14T23:41:42.348Z,99.90
2017-08-14T23:44:10.470Z,99.90
2017-08-14T23:46:36.717Z,99.90
2017-08-14T23:49:02.967Z,99.90
2017-08-14T23:51:29.266Z,99.90
2017-08-14T23:53:56.534Z,99.90
2017-08-14T23:56:22.813Z,99.90
2017-08-14T23:58:49.126Z,99.90
